Caliente, Nevada Weather observations

Data are for observation ending at time listed.
 Day   Time    Ave.   Ave.  Ave.  Vector   Max.   Stn.    Total    Solar   Ave.  
  of    of     Air    Rel.  Wind   Wind    Wind   Baro.  Precip.   Rad.    Soil  
Year   Day     Temp.  Hum.  Speed  Dir.    Gust   Pres.                    Temp. 
2015   (PST)    F      %     mph   deg.    mph     mb.     in.     W/m2     F   
------------------------------------------------------------------------------
 245    7:50   70.6    48    1.4   219      3.8   868.1    0.00     286    78.9
 245    8:00   73.1    43    2.0   288      4.5   868.1    0.00     354    78.9
 245    8:10   74.7    41    1.1   155      2.6   868.0    0.00     425    78.8
 245    8:20   76.7    39    2.8   260     10.1   868.0    0.00     446    78.8
 245    8:30   78.3    38    4.3   241     13.4   867.9    0.00     391    78.8
 245    8:40   78.0    38    8.5   250     17.6   867.9    0.00     357    78.9
 245    8:50   78.3    36    7.3   244     14.9   867.9    0.00     203    79.0
 245    9:00   79.0    34    6.7   241     17.2   867.9    0.00     356    79.1
 245    9:10   79.3    33    5.3   245     12.1   867.9    0.00     515    79.4
 245    9:20   79.7    32    5.0   225     12.9   867.8    0.00     559    79.6
 245    9:30   80.1    30    5.8   243     14.8   867.8    0.00     580    79.7
 245    9:40   80.6    28    4.8   230     13.9   867.9    0.00     600    79.9
 245    9:50   81.0    27    5.4   245     13.4   867.8    0.00     622    80.0
 245   10:00   80.9    28    6.2   234     20.7   867.6    0.00     636    80.1
 245   10:10   81.2    26    7.1   238     22.1   867.6    0.00     644    80.3
 245   10:20   81.8    26    6.2   248     13.6   867.5    0.00     657    80.4
 245   10:30   81.7    25    9.6   249     17.3   867.3    0.00     665    80.6
 245   10:40   82.0    25    9.8   248     21.6   867.2    0.00     677    80.8
 245   10:50   81.9    26   10.2   246     19.1   867.1    0.00     688    80.9
 245   11:00   82.3    23   12.9   247     23.2   867.0    0.00     695    81.1
 245   11:10   82.6    23   12.0   250     21.0   866.9    0.00     698    81.2
 245   11:20   83.2    23    9.5   248     16.8   866.8    0.00     703    81.3
 245   11:30   83.1    22    7.9   249     16.1   866.8    0.00     711    81.4
 245   11:40   83.8    23    6.6   247     19.4   866.7    0.00     660    81.5
 245   11:50   84.2    21   11.5   249     23.3   866.6    0.00     705    81.6
 245   12:00   84.2    20    7.0   250     20.1   866.6    0.00     704    81.8
 245   12:10   84.4    19    8.7   248     19.0   866.4    0.00     707    81.9
 245   12:20   84.6    18    6.1   228     14.8   866.4    0.00     703    82.0
 245   12:30   85.2    18    6.5   248     16.0   866.4    0.00     700    82.1
 245   12:40   85.2    19    4.7   186     11.4   866.3    0.00     688    82.2
 245   12:50   85.5    17    6.5   245     14.2   866.1    0.00     685    82.4
 245   13:00   85.7    18    6.8   226     18.6   866.0    0.00     674    82.6
 245   13:10   86.3    16    5.3   235     14.4   865.9    0.00     663    82.9
 245   13:20   86.7    17    2.9   183      9.6   865.7    0.00     649    83.3
 245   13:30   86.9    17    5.4   237     16.7   865.5    0.00     640    83.8
 245   13:40   86.8    16    4.1   244     12.9   865.5    0.00     622    84.6
 245   13:50   86.4    16    6.0   246     13.9   865.3    0.00     578    85.4
 245   14:00   86.0    16   11.2   248     21.3   865.1    0.00     536    86.2
 245   14:10   85.6    16    9.7   247     21.3   865.1    0.00     582    86.9
 245   14:20   86.4    16    6.9   234     18.5   864.9    0.00     557    87.6
 245   14:30   86.4    16    9.7   247     20.4   864.8    0.00     534    88.3
 245   14:40   86.5    16    6.7   247     14.9   864.7    0.00     515    89.0
 245   14:50   86.6    16    6.0   243     16.7   864.7    0.00     495    89.6
 245   15:00   87.0    16    5.4   210     22.1   864.6    0.00     474    90.2
 245   15:10   86.9    16    6.9   242     20.1   864.5    0.00     449    90.8
 245   15:20   86.8    16    8.2   240     16.7   864.3    0.00     424    91.3
 245   15:30   86.7    16    5.7   248     16.1   864.3    0.00     404    91.8
 245   15:40   87.2    16    3.9   223     12.1   864.3    0.00     380    92.2
 245   15:50   86.5    16    4.7   176     13.9   864.3    0.00     355    92.6
 245   16:00   86.5    16    6.2   232     17.6   864.2    0.00     330    93.0
 245   16:10   86.5    16    4.6   187     12.8   864.1    0.00     306    93.4
 245   16:20   86.0    17    4.1   157     18.3   864.1    0.00     282    93.6
 245   16:30   86.2    17    4.3   210     14.2   864.1    0.00     259    93.9
 245   16:40   86.1    17    4.4   229     12.4   864.0    0.00     241    94.1
 245   16:50   86.7    17    3.3   231     10.3   864.0    0.00     223    94.2
 245   17:00   86.2    18    4.4   234     13.2   864.0    0.00     205    94.4
 245   17:10   86.1    18    3.6   238     12.5   864.0    0.00     182    94.5
 245   17:20   85.8    19    3.8   241     13.0   864.0    0.00     145    94.5
 245   17:30   85.2    19    3.5   204     10.6   864.0    0.00     110    94.4
 245   17:40   84.9    19    3.4   222      8.6   863.9    0.00      70    94.3
 245   17:50   84.3    20    3.5   237     12.9   863.9    0.00      34    94.3
 245   18:00   83.7    20    2.4   203      7.6   863.9    0.00      15    94.1
 245   18:10   83.3    21    3.8   218     12.2   863.9    0.00       9    93.8
 245   18:20   83.0    21    2.6   196      8.0   863.9    0.00       5    93.5
 245   18:30   82.6    22    2.0   153     13.5   864.0    0.00       0    93.1
 245   18:40   82.2    22    2.3   155      7.0   864.0    0.00       0    92.8
 245   18:50   81.3    22    3.7   154     10.4   864.2    0.00       0    92.4
 245   19:00   80.6    21    3.3   140      8.7   864.3    0.00       0    92.1
 245   19:10   80.2    22    3.4   141      7.0   864.5    0.00       0    91.8
 245   19:20   79.5    22    2.0   128      6.3   864.6    0.00       0    91.4
 245   19:30   79.3    22    2.6   124      6.7   864.7    0.00       0    91.1
 245   19:40   78.9    23    2.2   121      4.3   864.7    0.00       0    90.8
 245   19:50   78.8    22    2.5   122      6.4   864.8    0.00       0    90.5
 245   20:00   78.8    22    2.4   158      6.4   864.8    0.00       0    90.2
 245   20:10   79.0    22    1.9   197      6.2   864.8    0.00       0    89.9
 245   20:20   78.9    22    1.7   226      7.8   864.9    0.00       0    89.6
 245   20:30   78.7    22    1.4   238      9.4   864.9    0.00       0    89.3
 245   20:40   78.5    22    3.3   250      8.3   864.8    0.00       0    89.1
 245   20:50   78.2    23    2.1   176      7.3   864.8    0.00       0    88.9
 245   21:00   78.2    21    3.0   150      8.1   864.9    0.00       0    88.6
 245   21:10   78.7    20    3.8   157      9.7   865.0    0.00       0    88.4
 245   21:20   78.7    20    2.5   186      8.0   865.2    0.00       0    88.2
 245   21:30   78.3    21    1.8   167      8.0   865.2    0.00       0    87.9
 245   21:40   78.1    21    2.6   152      9.7   865.3    0.00       0    87.7
 245   21:50   77.7    22    2.7   158      8.5   865.3    0.00       0    87.5
 245   22:00   77.4    22    1.1   167      3.9   865.4    0.00       0    87.3
 245   22:10   76.9    22    1.7   172      5.4   865.4    0.00       0    87.1
 245   22:20   76.6    22    1.0   232      3.6   865.4    0.00       0    86.9
 245   22:30   76.1    22    0.6   236      3.1   865.4    0.00       0    86.7
 245   22:40   75.8    23    1.3   225      5.6   865.4    0.00       0    86.6
 245   22:50   75.7    23    1.6   236      7.7   865.3    0.00       0    86.4
 245   23:00   75.8    22    1.9   240      5.1   865.3    0.00       0    86.2
 245   23:10   75.1    24    1.4   243      4.7   865.3    0.00       0    86.0
 245   23:20   75.0    24    1.6   227      4.3   865.2    0.00       0    85.8
 245   23:30   74.6    24    1.6   226      6.6   865.2    0.00       0    85.6
 245   23:40   74.3    25    0.6   182      2.0   865.3    0.00       0    85.4
 245   23:50   73.8    26    0.7   178      2.7   865.3    0.00       0    85.2
 246    0:00   73.8    26    0.6   216      3.4   865.3    0.00       0    85.1
 246    0:10   73.7    27    0.4   245      2.4   865.2    0.00       0    84.9
 246    0:20   72.6    28    0.3   238      2.2   865.2    0.00       0    84.8
 246    0:30   70.9    31    1.0    51      2.6   865.2    0.00       0    84.6
 246    0:40   69.3    33    0.8    53      4.3   865.2    0.00       0    84.4
 246    0:50   68.5    32    2.3    27      5.0   865.1    0.00       0    84.3
 246    1:00   67.8    32    1.0    50      3.1   865.1    0.00       0    84.1
 246    1:10   67.3    33    2.0    35      4.9   865.1    0.00       0    83.9
 246    1:20   67.0    32    3.2    60      9.3   865.1    0.00       0    83.8
 246    1:30   67.3    31    1.8    77      4.2   865.1    0.00       0    83.6
 246    1:40   66.6    32    2.7   104      4.4   865.1    0.00       1    83.4
 246    1:50   67.0    31    1.9    38      5.4   865.1    0.00       1    83.2
 246    2:00   67.0    31    2.9    45      5.6   865.1    0.00       1    83.0
 246    2:10   67.0    31    2.2    49      8.1   865.1    0.00       1    82.9
 246    2:20   67.0    31    3.1    46      8.2   865.1    0.00       1    82.7
 246    2:30   66.8    31    2.7    50      6.4   865.2    0.00       2    82.6
 246    2:40   66.1    32    1.3    45      4.8   865.2    0.00       1    82.4
 246    2:50   65.3    34    1.5    70      4.5   865.2    0.00       1    82.3
 246    3:00   64.8    34    1.9    53      5.7   865.2    0.00       1    82.1
 246    3:10   64.4    36    2.1    98      4.2   865.3    0.00       1    81.9
 246    3:20   63.9    37    0.8    49      3.0   865.2    0.00       1    81.8
 246    3:30   63.5    37    2.3    54      4.7   865.2    0.00       1    81.6
 246    3:40   63.4    37    1.5    59      4.4   865.2    0.00       1    81.5
 246    3:50   62.7    38    2.0    34      4.5   865.2    0.00       1    81.4
 246    4:00   62.1    39    1.1    16      3.7   865.2    0.00       2    81.2
 246    4:10   61.7    43    0.7    51      2.0   865.1    0.00       1    81.0
 246    4:20   61.1    44    1.0    43      3.1   865.1    0.00       1    80.8
 246    4:30   60.8    44    0.8   151      1.8   865.1    0.00       0    80.7
 246    4:40   60.7    44    0.9     8      2.6   865.1    0.00       1    80.5
 246    4:50   60.5    45    1.1   220      2.6   865.2    0.00       1    80.4
 246    5:00   60.5    46    0.1   185      1.5   865.2    0.00       0    80.2
 246    5:10   60.4    46    1.2    77      2.8   865.3    0.00       2    80.1
 246    5:20   59.9    47    0.9    93      2.6   865.3    0.00       3    80.0
 246    5:30   59.9    48    0.6   127      2.0   865.3    0.00       4    79.8
 246    5:40   59.4    49    1.2   132      2.9   865.3    0.00      16    79.7
 246    5:50   59.5    49    0.8   106      2.4   865.3    0.00      31    79.6
 246    6:00   60.0    48    0.8    58      2.4   865.4    0.00      44    79.4
 246    6:10   60.1    47    1.3    50      3.1   865.4    0.00      33    79.3
 246    6:20   60.0    46    1.3    85      3.2   865.5    0.00      65    79.2
 246    6:30   60.5    45    1.9    63      4.2   865.6    0.00     148    79.1
 246    6:40   61.7    44    1.1   120      2.5   865.6    0.00     186    78.9
 246    6:50   64.1    41    1.2   156      2.9   865.5    0.00     215    78.8
 246    7:00   65.5    38    2.1    37      4.0   865.5    0.00     245    78.7
 246    7:10   68.2    36    1.1   104      3.0   865.5    0.00     267    78.6
 246    7:20   69.9    34    0.8    87      2.7   865.4    0.00     295    78.4
 246    7:30   70.5    34    0.7   136      2.1   865.4    0.00     348    78.3
 246    7:40   72.4    31    0.7   182      2.0   865.3    0.00     399    78.3

Return to Caliente, Nevada graphs page.


Western Regional Climate Center,wrcc@dri.edu